createdAt,value
2016-12-27T00:00:00.476Z,1026.94
2016-12-27T00:00:10.490Z,1026.88
2016-12-27T00:00:20.467Z,1026.89
2016-12-27T00:00:30.457Z,1026.94
2016-12-27T00:00:40.455Z,1026.93
2016-12-27T00:00:50.447Z,1026.95
2016-12-27T00:01:00.438Z,1026.91
2016-12-27T00:01:10.433Z,1026.92
2016-12-27T00:01:20.428Z,1026.89
2016-12-27T00:01:30.421Z,1026.84
2016-12-27T00:01:40.416Z,1026.87
2016-12-27T00:01:50.405Z,1026.88
2016-12-27T00:02:00.400Z,1026.93
2016-12-27T00:02:10.395Z,1026.93
2016-12-27T00:02:20.418Z,1026.98
2016-12-27T00:02:30.382Z,1026.99
2016-12-27T00:02:40.377Z,1026.94
2016-12-27T00:02:50.368Z,1026.98
2016-12-27T00:03:00.360Z,1027.01
2016-12-27T00:03:10.356Z,1026.99
2016-12-27T00:03:20.349Z,1027.02
2016-12-27T00:03:30.344Z,1027
2016-12-27T00:03:40.340Z,1026.97
2016-12-27T00:03:50.329Z,1026.97
2016-12-27T00:04:00.325Z,1027.02
2016-12-27T00:04:10.320Z,1027.03
2016-12-27T00:04:20.314Z,1027.02
2016-12-27T00:04:30.306Z,1026.93
2016-12-27T00:04:40.299Z,1027.04
2016-12-27T00:04:50.293Z,1027.06
2016-12-27T00:05:00.287Z,1026.97
2016-12-27T00:05:10.279Z,1026.99
2016-12-27T00:05:20.276Z,1027.02
2016-12-27T00:05:30.268Z,1027.03
2016-12-27T00:05:40.260Z,1027.02
2016-12-27T00:05:50.255Z,1026.97
2016-12-27T00:06:00.248Z,1026.98
2016-12-27T00:06:10.243Z,1027.02
2016-12-27T00:06:20.234Z,1027.04
2016-12-27T00:06:30.227Z,1027.08
2016-12-27T00:06:40.222Z,1027.1
2016-12-27T00:06:50.215Z,1027.04
2016-12-27T00:07:00.210Z,1027.04
2016-12-27T00:07:10.202Z,1027.05
2016-12-27T00:07:20.200Z,1027.09
2016-12-27T00:07:30.192Z,1027.06
2016-12-27T00:07:40.182Z,1027.05
2016-12-27T00:07:50.176Z,1027.05
2016-12-27T00:08:00.171Z,1027.03
2016-12-27T00:08:10.165Z,1027.06
2016-12-27T00:08:20.159Z,1027.06
2016-12-27T00:08:30.156Z,1027.09
2016-12-27T00:08:40.146Z,1027.05
2016-12-27T00:08:50.136Z,1027.06
2016-12-27T00:09:00.136Z,1027.02
2016-12-27T00:09:10.152Z,1027.07
2016-12-27T00:09:20.118Z,1027.02
2016-12-27T00:09:30.116Z,1027.05
2016-12-27T00:09:40.107Z,1027.1
2016-12-27T00:09:50.102Z,1027.04
2016-12-27T00:10:00.094Z,1027.04
2016-12-27T00:10:10.087Z,1027.04
2016-12-27T00:10:20.079Z,1027.07
2016-12-27T00:10:30.073Z,1027.03
2016-12-27T00:10:40.069Z,1027.02
2016-12-27T00:10:50.063Z,1027.01
2016-12-27T00:11:00.059Z,1027
2016-12-27T00:11:10.047Z,1026.98
2016-12-27T00:11:20.043Z,1026.91
2016-12-27T00:11:30.035Z,1026.96
2016-12-27T00:11:40.032Z,1026.93
2016-12-27T00:11:50.022Z,1026.96
2016-12-27T00:12:00.016Z,1026.94
2016-12-27T00:12:10.009Z,1027
2016-12-27T00:12:20.005Z,1027.01
2016-12-27T00:12:29.998Z,1027.07
2016-12-27T00:12:39.993Z,1027.02
2016-12-27T00:12:49.987Z,1027.05
2016-12-27T00:12:59.980Z,1026.95
2016-12-27T00:13:09.975Z,1027.04
2016-12-27T00:13:19.967Z,1027.03
2016-12-27T00:13:29.961Z,1026.98
2016-12-27T00:13:39.950Z,1027
2016-12-27T00:13:49.971Z,1027.01
2016-12-27T00:13:59.941Z,1027.01
2016-12-27T00:14:09.935Z,1027.05
2016-12-27T00:14:19.927Z,1027
2016-12-27T00:14:29.922Z,1026.98
2016-12-27T00:14:39.913Z,1026.99
2016-12-27T00:14:50.043Z,1026.97
2016-12-27T00:14:59.899Z,1026.98
2016-12-27T00:15:09.897Z,1026.97
2016-12-27T00:15:19.890Z,1027.01
2016-12-27T00:15:29.886Z,1027.04
2016-12-27T00:15:39.875Z,1027.06
2016-12-27T00:15:49.870Z,1027.06
2016-12-27T00:15:59.862Z,1027.02
2016-12-27T00:16:09.856Z,1027.02
2016-12-27T00:16:19.848Z,1027.03
2016-12-27T00:16:29.875Z,1027.05
2016-12-27T00:16:39.838Z,1027.07
2016-12-27T00:16:49.831Z,1027.08
2016-12-27T00:16:59.821Z,1027.12
2016-12-27T00:17:09.819Z,1027.01
2016-12-27T00:17:19.811Z,1027.06
2016-12-27T00:17:29.805Z,1027.04
2016-12-27T00:17:39.798Z,1027.01
2016-12-27T00:17:49.790Z,1027.01
2016-12-27T00:17:59.788Z,1026.99
2016-12-27T00:18:09.777Z,1027.03
2016-12-27T00:18:19.775Z,1027.04
2016-12-27T00:18:29.765Z,1027.02
2016-12-27T00:18:39.760Z,1026.99
2016-12-27T00:18:49.752Z,1027.02
2016-12-27T00:18:59.751Z,1027
2016-12-27T00:19:09.743Z,1027.06
2016-12-27T00:19:19.733Z,1027.01
2016-12-27T00:19:29.728Z,1026.94
2016-12-27T00:19:39.722Z,1026.96
2016-12-27T00:19:49.718Z,1027
2016-12-27T00:19:59.710Z,1026.97
2016-12-27T00:20:09.702Z,1026.96
2016-12-27T00:20:19.696Z,1026.96
2016-12-27T00:20:29.691Z,1027
2016-12-27T00:20:39.686Z,1026.93
2016-12-27T00:20:49.677Z,1026.98
2016-12-27T00:20:59.671Z,1026.94
2016-12-27T00:21:09.664Z,1026.98
2016-12-27T00:21:19.659Z,1026.98
2016-12-27T00:21:29.651Z,1026.96
2016-12-27T00:21:39.644Z,1027.02
2016-12-27T00:21:49.638Z,1027.08
2016-12-27T00:21:59.633Z,1027.01
2016-12-27T00:22:09.626Z,1026.97
2016-12-27T00:22:19.617Z,1026.99
2016-12-27T00:22:29.614Z,1027.06
2016-12-27T00:22:39.605Z,1027.04
2016-12-27T00:22:49.600Z,1027.03
2016-12-27T00:22:59.592Z,1027.05
2016-12-27T00:23:09.586Z,1026.98
2016-12-27T00:23:19.583Z,1026.99
2016-12-27T00:23:29.575Z,1027.07
2016-12-27T00:23:39.570Z,1027.06
2016-12-27T00:23:49.563Z,1027.07
2016-12-27T00:23:59.557Z,1027.07
2016-12-27T00:24:09.546Z,1027.07
2016-12-27T00:24:19.543Z,1027.09
2016-12-27T00:24:29.536Z,1027.19
2016-12-27T00:24:39.531Z,1027.21
2016-12-27T00:24:49.522Z,1027.15
2016-12-27T00:24:59.517Z,1027.11
2016-12-27T00:25:09.510Z,1027.15
2016-12-27T00:25:19.501Z,1027.12
2016-12-27T00:25:29.498Z,1027.01
2016-12-27T00:25:39.489Z,1027.06
2016-12-27T00:25:49.484Z,1027.09
2016-12-27T00:25:59.478Z,1027.03
2016-12-27T00:26:09.473Z,1027.06
2016-12-27T00:26:19.464Z,1027.15
2016-12-27T00:26:29.458Z,1027.14
2016-12-27T00:26:39.450Z,1027.1
2016-12-27T00:26:49.447Z,1027.17
2016-12-27T00:26:59.439Z,1027.22
2016-12-27T00:27:09.434Z,1027.07
2016-12-27T00:27:19.426Z,1027.1
2016-12-27T00:27:29.419Z,1027.22
2016-12-27T00:27:39.412Z,1027.18
2016-12-27T00:27:49.407Z,1027.15
2016-12-27T00:27:59.403Z,1027.13
2016-12-27T00:28:09.395Z,1027.23
2016-12-27T00:28:19.390Z,1027.18
2016-12-27T00:28:29.383Z,1027.15
2016-12-27T00:28:39.377Z,1027.09
2016-12-27T00:28:49.371Z,1027.11
2016-12-27T00:28:59.359Z,1027.18
2016-12-27T00:29:09.359Z,1027.09
2016-12-27T00:29:19.349Z,1027.1
2016-12-27T00:29:29.341Z,1027.12
2016-12-27T00:29:39.335Z,1027.2
2016-12-27T00:29:49.334Z,1027.17
2016-12-27T00:29:59.323Z,1027.19
2016-12-27T00:30:09.317Z,1027.21
2016-12-27T00:30:19.310Z,1027.29
2016-12-27T00:30:29.304Z,1027.22
2016-12-27T00:30:39.296Z,1027.21
2016-12-27T00:30:49.292Z,1027.25
2016-12-27T00:30:59.287Z,1027.25
2016-12-27T00:31:09.278Z,1027.26
2016-12-27T00:31:19.605Z,1027.24
2016-12-27T00:31:29.401Z,1027.25
2016-12-27T00:31:39.256Z,1027.24
2016-12-27T00:31:49.255Z,1027.18
2016-12-27T00:31:59.243Z,1027.29
2016-12-27T00:32:09.238Z,1027.24
2016-12-27T00:32:19.231Z,1027.23
2016-12-27T00:32:29.225Z,1027.24
2016-12-27T00:32:39.220Z,1027.27
2016-12-27T00:32:49.214Z,1027.34
2016-12-27T00:32:59.209Z,1027.17
2016-12-27T00:33:09.200Z,1027.3
2016-12-27T00:33:19.192Z,1027.31
2016-12-27T00:33:29.189Z,1027.27
2016-12-27T00:33:39.179Z,1027.28
2016-12-27T00:33:49.177Z,1027.26
2016-12-27T00:33:59.171Z,1027.32
2016-12-27T00:34:09.166Z,1027.29
2016-12-27T00:34:19.154Z,1027.26
2016-12-27T00:34:29.148Z,1027.31
2016-12-27T00:34:39.140Z,1027.26
2016-12-27T00:34:49.137Z,1027.26
2016-12-27T00:34:59.132Z,1027.24
2016-12-27T00:35:09.123Z,1027.31
2016-12-27T00:35:19.116Z,1027.34
2016-12-27T00:35:29.110Z,1027.25
2016-12-27T00:35:39.138Z,1027.34
2016-12-27T00:35:49.096Z,1027.26
2016-12-27T00:35:59.094Z,1027.29
2016-12-27T00:36:09.087Z,1027.38
2016-12-27T00:36:19.078Z,1027.33
2016-12-27T00:36:29.071Z,1027.34
2016-12-27T00:36:39.067Z,1027.26
2016-12-27T00:36:49.062Z,1027.3
2016-12-27T00:36:59.053Z,1027.32
2016-12-27T00:37:09.048Z,1027.24
2016-12-27T00:37:19.041Z,1027.28
2016-12-27T00:37:29.034Z,1027.23
2016-12-27T00:37:39.027Z,1027.22
2016-12-27T00:37:49.022Z,1027.22
2016-12-27T00:37:59.014Z,1027.21
2016-12-27T00:38:09.363Z,1027.16
2016-12-27T00:38:19.001Z,1027.19
2016-12-27T00:38:28.995Z,1027.16
2016-12-27T00:38:38.987Z,1027.22
2016-12-27T00:38:48.984Z,1027.24
2016-12-27T00:38:58.976Z,1027.18
2016-12-27T00:39:08.969Z,1027.15
2016-12-27T00:39:18.962Z,1027.17
2016-12-27T00:39:29.090Z,1027.12
2016-12-27T00:39:38.950Z,1027.21
2016-12-27T00:39:48.945Z,1027.19
2016-12-27T00:39:58.937Z,1027.25
2016-12-27T00:40:08.931Z,1027.3
2016-12-27T00:40:18.924Z,1027.22
2016-12-27T00:40:28.918Z,1027.24
2016-12-27T00:40:39.262Z,1027.26
2016-12-27T00:40:49.241Z,1027.25
2016-12-27T00:40:58.898Z,1027.27
2016-12-27T00:41:08.893Z,1027.26
2016-12-27T00:41:19.229Z,1027.19
2016-12-27T00:41:28.882Z,1027.22
2016-12-27T00:41:38.873Z,1027.19
2016-12-27T00:41:48.867Z,1027.27
2016-12-27T00:41:58.863Z,1027.28
2016-12-27T00:42:08.857Z,1027.29
2016-12-27T00:42:18.847Z,1027.29
2016-12-27T00:42:28.843Z,1027.22
2016-12-27T00:42:38.835Z,1027.24
2016-12-27T00:42:48.830Z,1027.26
2016-12-27T00:42:58.820Z,1027.27
2016-12-27T00:43:08.818Z,1027.24
2016-12-27T00:43:18.811Z,1027.23
2016-12-27T00:43:28.805Z,1027.28
2016-12-27T00:43:38.798Z,1027.25
2016-12-27T00:43:48.787Z,1027.31
2016-12-27T00:43:58.780Z,1027.21
2016-12-27T00:44:08.775Z,1027.3
2016-12-27T00:44:18.769Z,1027.25
2016-12-27T00:44:28.764Z,1027.31
2016-12-27T00:44:38.761Z,1027.3
2016-12-27T00:44:48.755Z,1027.33
2016-12-27T00:44:58.743Z,1027.32
2016-12-27T00:45:08.738Z,1027.33
2016-12-27T00:45:18.732Z,1027.27
2016-12-27T00:45:28.725Z,1027.28
2016-12-27T00:45:38.721Z,1027.31
2016-12-27T00:45:48.845Z,1027.3
2016-12-27T00:45:58.707Z,1027.22
2016-12-27T00:46:08.702Z,1027.26
2016-12-27T00:46:18.829Z,1027.32
2016-12-27T00:46:28.685Z,1027.31
2016-12-27T00:46:38.681Z,1027.31
2016-12-27T00:46:48.676Z,1027.19
2016-12-27T00:46:58.665Z,1027.27
2016-12-27T00:47:08.661Z,1027.33
2016-12-27T00:47:18.652Z,1027.29
2016-12-27T00:47:28.649Z,1027.29
2016-12-27T00:47:38.643Z,1027.31
2016-12-27T00:47:48.634Z,1027.27
2016-12-27T00:47:58.632Z,1027.25
2016-12-27T00:48:08.620Z,1027.26
2016-12-27T00:48:18.617Z,1027.28
2016-12-27T00:48:28.607Z,1027.26
2016-12-27T00:48:38.601Z,1027.27
2016-12-27T00:48:48.596Z,1027.31
2016-12-27T00:48:58.592Z,1027.28
2016-12-27T00:49:08.585Z,1027.35
2016-12-27T00:49:18.581Z,1027.36
2016-12-27T00:49:28.570Z,1027.38
2016-12-27T00:49:38.564Z,1027.38
2016-12-27T00:49:48.557Z,1027.3
2016-12-27T00:49:58.577Z,1027.33
2016-12-27T00:50:08.882Z,1027.33
2016-12-27T00:50:18.538Z,1027.36
2016-12-27T00:50:28.536Z,1027.32
2016-12-27T00:50:38.528Z,1027.28
2016-12-27T00:50:48.520Z,1027.34
2016-12-27T00:50:58.512Z,1027.32
2016-12-27T00:51:08.508Z,1027.35
2016-12-27T00:51:18.501Z,1027.37
2016-12-27T00:51:28.493Z,1027.34
2016-12-27T00:51:38.487Z,1027.35
2016-12-27T00:51:48.506Z,1027.29
2016-12-27T00:51:58.475Z,1027.36
2016-12-27T00:52:08.467Z,1027.34
2016-12-27T00:52:18.596Z,1027.37
2016-12-27T00:52:28.458Z,1027.37
2016-12-27T00:52:38.454Z,1027.42
2016-12-27T00:52:48.441Z,1027.42
2016-12-27T00:52:58.440Z,1027.4
2016-12-27T00:53:08.437Z,1027.42
2016-12-27T00:53:18.422Z,1027.42
2016-12-27T00:53:28.420Z,1027.4
2016-12-27T00:53:38.410Z,1027.4
2016-12-27T00:53:48.405Z,1027.4
2016-12-27T00:53:58.401Z,1027.41
2016-12-27T00:54:08.389Z,1027.45
2016-12-27T00:54:18.388Z,1027.4
2016-12-27T00:54:28.380Z,1027.48
2016-12-27T00:54:38.374Z,1027.41
2016-12-27T00:54:48.371Z,1027.48
2016-12-27T00:54:58.361Z,1027.48
2016-12-27T00:55:08.354Z,1027.51
2016-12-27T00:55:18.344Z,1027.45
2016-12-27T00:55:28.341Z,1027.5
2016-12-27T00:55:38.336Z,1027.43
2016-12-27T00:55:48.329Z,1027.43
2016-12-27T00:55:58.320Z,1027.45
2016-12-27T00:56:08.341Z,1027.45
2016-12-27T00:56:18.308Z,1027.49
2016-12-27T00:56:28.304Z,1027.44
2016-12-27T00:56:38.301Z,1027.52
2016-12-27T00:56:48.290Z,1027.5
2016-12-27T00:56:58.286Z,1027.53
2016-12-27T00:57:08.275Z,1027.51
2016-12-27T00:57:18.271Z,1027.47
2016-12-27T00:57:28.262Z,1027.52
2016-12-27T00:57:38.258Z,1027.47
2016-12-27T00:57:48.251Z,1027.5
2016-12-27T00:57:58.243Z,1027.5
2016-12-27T00:58:08.238Z,1027.51
2016-12-27T00:58:18.232Z,1027.55
2016-12-27T00:58:28.226Z,1027.52
2016-12-27T00:58:38.220Z,1027.52
2016-12-27T00:58:48.213Z,1027.54
2016-12-27T00:58:58.205Z,1027.55
2016-12-27T00:59:08.204Z,1027.58
2016-12-27T00:59:18.195Z,1027.54
2016-12-27T00:59:28.211Z,1027.53
2016-12-27T00:59:38.180Z,1027.54
2016-12-27T00:59:48.172Z,1027.54
2016-12-27T00:59:58.169Z,1027.52
2016-12-27T01:00:08.162Z,1027.54
2016-12-27T01:00:18.154Z,1027.59
2016-12-27T01:00:28.150Z,1027.61
2016-12-27T01:00:38.144Z,1027.55
2016-12-27T01:00:48.136Z,1027.53
2016-12-27T01:00:58.132Z,1027.52
2016-12-27T01:01:08.124Z,1027.58
2016-12-27T01:01:18.116Z,1027.57
2016-12-27T01:01:28.107Z,1027.56
2016-12-27T01:01:38.103Z,1027.53
2016-12-27T01:01:48.096Z,1027.61
2016-12-27T01:01:58.089Z,1027.54
2016-12-27T01:02:08.083Z,1027.57
2016-12-27T01:02:18.077Z,1027.58
2016-12-27T01:02:28.068Z,1027.59
2016-12-27T01:02:38.063Z,1027.54
2016-12-27T01:02:48.060Z,1027.49
2016-12-27T01:02:58.054Z,1027.61
2016-12-27T01:03:08.048Z,1027.54
2016-12-27T01:03:18.038Z,1027.6
2016-12-27T01:03:28.032Z,1027.59
2016-12-27T01:03:38.027Z,1027.63
2016-12-27T01:03:48.020Z,1027.61
2016-12-27T01:03:58.014Z,1027.58
2016-12-27T01:04:08.009Z,1027.58
2016-12-27T01:04:17.999Z,1027.56
2016-12-27T01:04:27.995Z,1027.62
2016-12-27T01:04:37.986Z,1027.63
2016-12-27T01:04:47.980Z,1027.62
2016-12-27T01:04:57.976Z,1027.69
2016-12-27T01:05:07.967Z,1027.68
2016-12-27T01:05:17.962Z,1027.7
2016-12-27T01:05:27.957Z,1027.67
2016-12-27T01:05:37.949Z,1027.69
2016-12-27T01:05:47.942Z,1027.71
2016-12-27T01:05:57.935Z,1027.64
2016-12-27T01:06:07.929Z,1027.69
2016-12-27T01:06:17.920Z,1027.71
2016-12-27T01:06:27.919Z,1027.69
2016-12-27T01:06:37.910Z,1027.7
2016-12-27T01:06:47.924Z,1027.68
2016-12-27T01:06:57.899Z,1027.67
2016-12-27T01:07:07.889Z,1027.71
2016-12-27T01:07:17.888Z,1027.66
2016-12-27T01:07:27.878Z,1027.63
2016-12-27T01:07:37.870Z,1027.69
2016-12-27T01:07:47.865Z,1027.64
2016-12-27T01:07:57.861Z,1027.67
2016-12-27T01:08:07.856Z,1027.68
2016-12-27T01:08:17.845Z,1027.69
2016-12-27T01:08:27.842Z,1027.67
2016-12-27T01:08:37.834Z,1027.62
2016-12-27T01:08:47.829Z,1027.64
2016-12-27T01:08:57.827Z,1027.64
2016-12-27T01:09:07.815Z,1027.66
2016-12-27T01:09:17.809Z,1027.68
2016-12-27T01:09:27.803Z,1027.75
2016-12-27T01:09:37.795Z,1027.73
2016-12-27T01:09:47.793Z,1027.71
2016-12-27T01:09:57.782Z,1027.71
2016-12-27T01:10:07.774Z,1027.73
2016-12-27T01:10:17.770Z,1027.8
2016-12-27T01:10:27.762Z,1027.69
2016-12-27T01:10:37.756Z,1027.75
2016-12-27T01:10:47.884Z,1027.72
2016-12-27T01:10:57.747Z,1027.72
2016-12-27T01:11:07.741Z,1027.72
2016-12-27T01:11:17.730Z,1027.73
2016-12-27T01:11:27.727Z,1027.72
2016-12-27T01:11:37.715Z,1027.74
2016-12-27T01:11:47.713Z,1027.75
2016-12-27T01:11:57.705Z,1027.76
2016-12-27T01:12:07.700Z,1027.69
2016-12-27T01:12:17.695Z,1027.76
2016-12-27T01:12:27.690Z,1027.77
2016-12-27T01:12:37.680Z,1027.73
2016-12-27T01:12:47.672Z,1027.72
2016-12-27T01:12:57.664Z,1027.7
2016-12-27T01:13:07.661Z,1027.66
2016-12-27T01:13:17.654Z,1027.72
2016-12-27T01:13:27.649Z,1027.72
2016-12-27T01:13:37.638Z,1027.74
2016-12-27T01:13:47.635Z,1027.72
2016-12-27T01:13:57.625Z,1027.74
2016-12-27T01:14:07.622Z,1027.72
2016-12-27T01:14:17.615Z,1027.7
2016-12-27T01:14:27.608Z,1027.75
2016-12-27T01:14:37.607Z,1027.72
2016-12-27T01:14:47.599Z,1027.73
2016-12-27T01:14:57.593Z,1027.75
2016-12-27T01:15:07.589Z,1027.72
2016-12-27T01:15:17.575Z,1027.72
2016-12-27T01:15:27.570Z,1027.76
2016-12-27T01:15:37.565Z,1027.74
2016-12-27T01:15:47.557Z,1027.72
2016-12-27T01:15:57.557Z,1027.74
2016-12-27T01:16:07.545Z,1027.75
2016-12-27T01:16:17.541Z,1027.72
2016-12-27T01:16:27.533Z,1027.82
2016-12-27T01:16:37.528Z,1027.87
2016-12-27T01:16:47.517Z,1027.82
2016-12-27T01:16:57.515Z,1027.8
2016-12-27T01:17:07.507Z,1027.78
2016-12-27T01:17:17.502Z,1027.77
2016-12-27T01:17:27.498Z,1027.84
2016-12-27T01:17:37.488Z,1027.79
2016-12-27T01:17:47.481Z,1027.82
2016-12-27T01:17:57.478Z,1027.87
2016-12-27T01:18:07.467Z,1027.86
2016-12-27T01:18:17.462Z,1027.84
2016-12-27T01:18:27.459Z,1027.86
2016-12-27T01:18:37.451Z,1027.87
2016-12-27T01:18:47.444Z,1027.86
2016-12-27T01:18:57.436Z,1027.92
2016-12-27T01:19:07.452Z,1027.85
2016-12-27T01:19:17.427Z,1027.81
2016-12-27T01:19:27.415Z,1027.85
2016-12-27T01:19:37.414Z,1027.81
2016-12-27T01:19:47.405Z,1027.81
2016-12-27T01:19:57.397Z,1027.86
2016-12-27T01:20:07.391Z,1027.8
2016-12-27T01:20:17.384Z,1027.79
2016-12-27T01:20:27.379Z,1027.76
2016-12-27T01:20:37.376Z,1027.8
2016-12-27T01:20:47.363Z,1027.83
2016-12-27T01:20:57.364Z,1027.83
2016-12-27T01:21:07.354Z,1027.8
2016-12-27T01:21:17.348Z,1027.84
2016-12-27T01:21:27.341Z,1027.83
2016-12-27T01:21:37.336Z,1027.84
2016-12-27T01:21:47.329Z,1027.82
2016-12-27T01:21:57.324Z,1027.82
2016-12-27T01:22:07.313Z,1027.82
2016-12-27T01:22:17.642Z,1027.81
2016-12-27T01:22:27.302Z,1027.89
2016-12-27T01:22:37.296Z,1027.87
2016-12-27T01:22:47.291Z,1027.87
2016-12-27T01:22:57.283Z,1027.88
2016-12-27T01:23:07.280Z,1027.88
2016-12-27T01:23:17.274Z,1027.83
2016-12-27T01:23:27.263Z,1027.84
2016-12-27T01:23:37.257Z,1027.83
2016-12-27T01:23:47.253Z,1027.81
2016-12-27T01:23:57.247Z,1027.91
2016-12-27T01:24:07.241Z,1027.86
2016-12-27T01:24:17.231Z,1027.84
2016-12-27T01:24:27.222Z,1027.82
2016-12-27T01:24:37.220Z,1027.85
2016-12-27T01:24:47.214Z,1027.86
2016-12-27T01:24:57.210Z,1027.9
2016-12-27T01:25:07.198Z,1027.87
2016-12-27T01:25:17.194Z,1027.87
2016-12-27T01:25:27.187Z,1027.88
2016-12-27T01:25:37.179Z,1027.88
2016-12-27T01:25:47.174Z,1027.93
2016-12-27T01:25:57.170Z,1027.89
2016-12-27T01:26:07.162Z,1027.91
2016-12-27T01:26:17.291Z,1027.92
2016-12-27T01:26:27.147Z,1027.85
2016-12-27T01:26:37.148Z,1027.91
2016-12-27T01:26:47.134Z,1027.9
2016-12-27T01:26:57.161Z,1027.92
2016-12-27T01:27:07.122Z,1027.95
2016-12-27T01:27:17.119Z,1027.94
2016-12-27T01:27:27.111Z,1027.92
2016-12-27T01:27:37.105Z,1027.89
2016-12-27T01:27:47.093Z,1027.92
2016-12-27T01:27:57.093Z,1027.94
2016-12-27T01:28:07.085Z,1027.92
2016-12-27T01:28:17.082Z,1027.89
2016-12-27T01:28:27.070Z,1027.89
2016-12-27T01:28:37.067Z,1027.93
2016-12-27T01:28:47.057Z,1027.93
2016-12-27T01:28:57.054Z,1027.92
2016-12-27T01:29:07.045Z,1027.9
2016-12-27T01:29:17.038Z,1027.95
2016-12-27T01:29:27.034Z,1027.91
2016-12-27T01:29:37.026Z,1027.89
2016-12-27T01:29:47.022Z,1027.85
2016-12-27T01:29:57.018Z,1027.89
2016-12-27T01:30:07.006Z,1027.91
2016-12-27T01:30:16.999Z,1027.89
2016-12-27T01:30:26.994Z,1027.9
2016-12-27T01:30:36.990Z,1027.9
2016-12-27T01:30:46.986Z,1027.93
2016-12-27T01:30:56.978Z,1027.9
2016-12-27T01:31:06.966Z,1027.89
2016-12-27T01:31:16.962Z,1027.94
2016-12-27T01:31:27.301Z,1027.91
2016-12-27T01:31:36.949Z,1027.92
2016-12-27T01:31:46.945Z,1027.92
2016-12-27T01:31:56.939Z,1027.89
2016-12-27T01:32:06.934Z,1027.89
2016-12-27T01:32:16.925Z,1027.89
2016-12-27T01:32:26.917Z,1027.96
2016-12-27T01:32:36.913Z,1027.92
2016-12-27T01:32:46.904Z,1027.97
2016-12-27T01:32:56.898Z,1027.94
2016-12-27T01:33:06.895Z,1027.95
2016-12-27T01:33:16.887Z,1027.92
2016-12-27T01:33:26.881Z,1027.94
2016-12-27T01:33:36.872Z,1027.96
2016-12-27T01:33:46.866Z,1027.95
2016-12-27T01:33:56.859Z,1028.01
2016-12-27T01:34:06.853Z,1027.96
2016-12-27T01:34:16.847Z,1027.98
2016-12-27T01:34:26.840Z,1028.06
2016-12-27T01:34:36.836Z,1028.04
2016-12-27T01:34:46.832Z,1028.05
2016-12-27T01:34:56.820Z,1028.05
2016-12-27T01:35:07.151Z,1028.04
2016-12-27T01:35:16.808Z,1028.09
2016-12-27T01:35:26.806Z,1028.1
2016-12-27T01:35:36.797Z,1028.08
2016-12-27T01:35:46.790Z,1028.13
2016-12-27T01:35:56.788Z,1028.15
2016-12-27T01:36:06.779Z,1028.13
2016-12-27T01:36:16.775Z,1028.15
2016-12-27T01:36:26.765Z,1028.14
2016-12-27T01:36:36.893Z,1028.15
2016-12-27T01:36:46.752Z,1028.2
2016-12-27T01:36:56.745Z,1028.16
2016-12-27T01:37:06.739Z,1028.17
2016-12-27T01:37:16.730Z,1028.23
2016-12-27T01:37:26.725Z,1028.12
2016-12-27T01:37:36.721Z,1028.13
2016-12-27T01:37:46.713Z,1028.08
2016-12-27T01:37:56.706Z,1028.12
2016-12-27T01:38:06.701Z,1028.14
2016-12-27T01:38:16.699Z,1028.08
2016-12-27T01:38:26.684Z,1028.13
2016-12-27T01:38:36.682Z,1028.12
2016-12-27T01:38:46.676Z,1028.09
2016-12-27T01:38:56.669Z,1028.08
2016-12-27T01:39:06.664Z,1028.04
2016-12-27T01:39:16.657Z,1028.01
2016-12-27T01:39:26.674Z,1028.07
2016-12-27T01:39:36.643Z,1028.05
2016-12-27T01:39:46.639Z,1027.99
2016-12-27T01:39:56.633Z,1028.01
2016-12-27T01:40:06.651Z,1028.08
2016-12-27T01:40:16.616Z,1028.08
2016-12-27T01:40:26.612Z,1028.13
2016-12-27T01:40:36.609Z,1028.07
2016-12-27T01:40:46.596Z,1028.06
2016-12-27T01:40:56.594Z,1028.11
2016-12-27T01:41:06.586Z,1027.99
2016-12-27T01:41:16.578Z,1028.02
2016-12-27T01:41:26.574Z,1028.02
2016-12-27T01:41:36.586Z,1028.04
2016-12-27T01:41:46.560Z,1028.04
2016-12-27T01:41:56.557Z,1028.02
2016-12-27T01:42:06.545Z,1027.99
2016-12-27T01:42:16.544Z,1028.06
2016-12-27T01:42:26.536Z,1028.05
2016-12-27T01:42:36.528Z,1027.99
2016-12-27T01:42:46.522Z,1028.09
2016-12-27T01:42:56.517Z,1028.1
2016-12-27T01:43:06.507Z,1028.1
2016-12-27T01:43:16.504Z,1028.08
2016-12-27T01:43:26.495Z,1028.13
2016-12-27T01:43:36.488Z,1028.15
2016-12-27T01:43:46.483Z,1028.15
2016-12-27T01:43:56.483Z,1028.12
2016-12-27T01:44:06.470Z,1028.14
2016-12-27T01:44:16.802Z,1028.13
2016-12-27T01:44:26.456Z,1028.11
2016-12-27T01:44:36.450Z,1028.11
2016-12-27T01:44:46.447Z,1028.09
2016-12-27T01:44:56.439Z,1028.06
2016-12-27T01:45:06.431Z,1028.12
2016-12-27T01:45:16.427Z,1028.11
2016-12-27T01:45:26.418Z,1028.14
2016-12-27T01:45:36.436Z,1028.2
2016-12-27T01:45:46.409Z,1028.18
2016-12-27T01:45:56.402Z,1028.19
2016-12-27T01:46:06.396Z,1028.17
2016-12-27T01:46:16.388Z,1028.22
2016-12-27T01:46:26.381Z,1028.22
2016-12-27T01:46:36.373Z,1028.17
2016-12-27T01:46:46.366Z,1028.23
2016-12-27T01:46:56.363Z,1028.26
2016-12-27T01:47:06.359Z,1028.22
2016-12-27T01:47:16.349Z,1028.27
2016-12-27T01:47:26.343Z,1028.23
2016-12-27T01:47:36.335Z,1028.26
2016-12-27T01:47:46.327Z,1028.29
2016-12-27T01:47:56.324Z,1028.29
2016-12-27T01:48:06.316Z,1028.28
2016-12-27T01:48:16.310Z,1028.35
2016-12-27T01:48:26.307Z,1028.34
2016-12-27T01:48:36.296Z,1028.27
2016-12-27T01:48:46.291Z,1028.28
2016-12-27T01:48:56.288Z,1028.36
2016-12-27T01:49:06.275Z,1028.42
2016-12-27T01:49:16.271Z,1028.39
2016-12-27T01:49:26.267Z,1028.36
2016-12-27T01:49:36.257Z,1028.29
2016-12-27T01:49:46.273Z,1028.33
2016-12-27T01:49:56.244Z,1028.39
2016-12-27T01:50:06.576Z,1028.36
2016-12-27T01:50:16.237Z,1028.35
2016-12-27T01:50:26.227Z,1028.42
2016-12-27T01:50:36.222Z,1028.44
2016-12-27T01:50:46.216Z,1028.31
2016-12-27T01:50:56.210Z,1028.4
2016-12-27T01:51:06.200Z,1028.42
2016-12-27T01:51:16.195Z,1028.39
2016-12-27T01:51:26.188Z,1028.4
2016-12-27T01:51:36.184Z,1028.4
2016-12-27T01:51:46.175Z,1028.31
2016-12-27T01:51:56.537Z,1028.41
2016-12-27T01:52:06.163Z,1028.46
2016-12-27T01:52:16.156Z,1028.39
2016-12-27T01:52:26.150Z,1028.39
2016-12-27T01:52:36.146Z,1028.4
2016-12-27T01:52:46.135Z,1028.41
2016-12-27T01:52:56.132Z,1028.41
2016-12-27T01:53:06.128Z,1028.37
2016-12-27T01:53:16.118Z,1028.4
2016-12-27T01:53:26.112Z,1028.37
2016-12-27T01:53:36.106Z,1028.39
2016-12-27T01:53:46.103Z,1028.39
2016-12-27T01:53:56.114Z,1028.36
2016-12-27T01:54:06.088Z,1028.38
2016-12-27T01:54:16.080Z,1028.31
2016-12-27T01:54:26.075Z,1028.37
2016-12-27T01:54:36.065Z,1028.39
2016-12-27T01:54:46.059Z,1028.36
2016-12-27T01:54:56.055Z,1028.31
2016-12-27T01:55:06.047Z,1028.44
2016-12-27T01:55:16.044Z,1028.38
2016-12-27T01:55:26.035Z,1028.4
2016-12-27T01:55:36.030Z,1028.45
2016-12-27T01:55:46.021Z,1028.41
2016-12-27T01:55:56.014Z,1028.42
2016-12-27T01:56:06.007Z,1028.42
2016-12-27T01:56:16.034Z,1028.43
2016-12-27T01:56:25.998Z,1028.34
2016-12-27T01:56:35.994Z,1028.35
2016-12-27T01:56:45.988Z,1028.41
2016-12-27T01:56:55.979Z,1028.42
2016-12-27T01:57:05.966Z,1028.42
2016-12-27T01:57:15.964Z,1028.44
2016-12-27T01:57:25.956Z,1028.38
2016-12-27T01:57:35.953Z,1028.39
2016-12-27T01:57:45.947Z,1028.4
2016-12-27T01:57:55.939Z,1028.42
2016-12-27T01:58:05.932Z,1028.4
2016-12-27T01:58:15.930Z,1028.4
2016-12-27T01:58:25.923Z,1028.37
2016-12-27T01:58:35.914Z,1028.45
2016-12-27T01:58:45.909Z,1028.45
2016-12-27T01:58:55.901Z,1028.42
2016-12-27T01:59:05.897Z,1028.43
2016-12-27T01:59:15.890Z,1028.48
2016-12-27T01:59:25.883Z,1028.46
2016-12-27T01:59:35.874Z,1028.48
2016-12-27T01:59:45.870Z,1028.49
2016-12-27T01:59:55.861Z,1028.51
2016-12-27T02:00:05.863Z,1028.52
2016-12-27T02:00:15.851Z,1028.45
2016-12-27T02:00:25.845Z,1028.47
2016-12-27T02:00:35.840Z,1028.44
2016-12-27T02:00:45.830Z,1028.49
2016-12-27T02:00:55.823Z,1028.5
2016-12-27T02:01:05.817Z,1028.53
2016-12-27T02:01:15.814Z,1028.44